Latest Coastal Weather Observations for Taree Airport

IDN60701

Issued at 11:31 pm EST Wednesday 24 May 2017 (issued every 10 minutes, with the page automatically refreshed every 10 minutes)

About coastal observations | Map of coastal stations | Coastal observations for NSW | Marine services | Other Formats
Station Details ID: 060141 Name: TAREE AIRPORT AWS Lat: -31.89 Lon: 152.51 Height: 8.0 m
Data from the previous 72 hours. | See also: Recent months at Taree Airport
Date/Time
EST
Temp
°C
Wind Pressure Rain since
9am
mm
Weather Cloud Vis
km
Sea
Height
m
Swell
Dir  Spd
kts
Gust
kts
hPa Trend Height
m
Period
s
Dir
24/11:30pm 14.8 SW 7 8 1018.1 - 0.0 - - 10 - - - -
24/11:00pm 14.5 SW 5 7 1018.1 - 0.0 - - 10 - - - -
24/10:30pm 13.8 SW 5 7 1017.8 - 0.0 - - 10 - - - -
24/10:00pm 15.2 WSW 6 7 1017.6 - 0.0 - - 10 - - - -
24/09:30pm 16.3 WSW 7 8 1017.3 - 0.0 - - 10 - - - -
24/09:00pm 13.7 NNW 1 4 1017.0 - 0.0 - - 10 - - - -
24/08:30pm 16.4 WSW 5 7 1016.6 - 0.0 - - 10 - - - -
24/08:00pm 14.8 NNE 3 5 1016.3 - 0.0 - - 10 - - - -
24/07:30pm 17.7 W 6 8 1015.7 - 0.0 - - 10 - - - -
24/07:00pm 17.7 W 6 8 1015.4 - 0.0 - - 10 - - - -
24/06:30pm 17.8 W 5 8 1015.1 - 0.0 - - 10 - - - -
24/06:00pm 16.4 NW 1 4 1014.6 - 0.0 - - 10 - - - -
24/05:30pm 18.1 CALM 0 0 1014.2 - 0.0 - - 10 - - - -
24/05:00pm 18.4 CALM 0 0 1013.6 - 0.0 - - 10 - - - -
24/04:30pm 20.3 E 2 4 1013.2 - 0.0 - - 10 - - - -
24/04:00pm 20.8 SE 6 7 1012.7 - 0.0 - - 10 - - - -
24/03:30pm 21.3 SE 8 12 1012.5 - 0.0 - - 10 - - - -
24/03:00pm 21.9 SE 8 11 1012.2 - 0.0 - - 10 - - - -
24/02:30pm 22.2 SE 9 14 1011.9 - 0.0 - Partly cloudy 10 - - - -
24/02:00pm 22.5 SE 9 11 1011.8 - 0.0 - Partly cloudy 10 - - - -
24/01:30pm 23.2 SE 8 11 1012.0 - 0.0 - Partly cloudy 10 - - - -
24/01:00pm 23.0 ESE 8 10 1012.0 - 0.0 - - 10 - - - -
24/12:30pm 23.9 ESE 6 8 1012.4 - 0.0 - - 10 - - - -
24/12:00pm 23.6 ESE 6 8 1013.1 - 0.0 - - 10 - - - -
24/11:30am 23.0 SE 5 7 1014.0 - 0.0 - - 10 - - - -
24/11:00am 23.2 S 3 5 1014.6 - 0.0 - - 10 - - - -
24/10:30am 22.0 NNW 4 5 1014.9 - 0.0 - Partly cloudy 10 - - - -
24/10:00am 20.4 NW 5 6 1015.4 - 0.0 - Partly cloudy 10 - - - -
24/09:30am 18.0 NW 1 4 1015.7 - 0.0 - Partly cloudy 10 - - - -
24/09:00am 16.3 NW 5 7 1015.8 - 0.6 - - 10 - - - -
24/08:30am 14.6 NNW 5 7 1016.0 - 0.6 - Partly cloudy 10 - - - -
24/08:00am 14.0 W 5 6 1016.1 - 0.6 - Partly cloudy 10 - - - -
24/07:30am 13.5 SW 8 17 1016.8 - 0.4 - Partly cloudy 10 - - - -
24/07:19am 12.7 WSW 7 18 1017.5 - 0.4 - Partly cloudy 10 - - - -
24/07:03am 11.6 SW 3 6 1016.2 - 0.4 - - 10 - - - -
24/07:00am 11.2 SW 3 6 1016.1 - 0.4 - - 10 - - - -
24/06:39am 9.9 NNW 4 5 1015.6 - 0.4 - - 5 - - - -
24/06:30am 11.6 W 4 5 1015.8 - 0.4 - - 10 - - - -
24/06:29am 11.6 W 4 5 1015.8 - 0.4 - - 10 - - - -
24/06:00am 10.1 NNE 2 4 1015.6 - 0.4 - Mostly clear 0.5 - - - -
24/05:45am 10.9 NNW 3 4 1015.8 - 0.4 - - 5 - - - -
24/05:30am 12.1 W 4 5 1015.9 - 0.4 - - 10 - - - -
24/05:06am 12.1 W 1 4 1015.8 - 0.4 - - 7 - - - -
24/05:00am 11.5 CALM 0 0 1015.6 - 0.4 - - 6 - - - -
24/04:47am 11.7 WNW 3 5 1015.6 - 0.4 - - 5 - - - -
24/04:42am 12.0 WNW 2 5 1015.9 - 0.4 - - 10 - - - -
24/04:30am 11.8 CALM 0 4 1015.6 - 0.4 - - 4 - - - -
24/04:24am 11.9 W 3 5 1015.6 - 0.4 - - 5 - - - -
24/04:23am 12.1 W 3 6 1015.6 - 0.4 - - 7 - - - -
24/04:16am 12.1 W 5 7 1015.8 - 0.4 - Partly cloudy 10 - - - -
24/04:14am 12.0 WSW 5 7 1015.9 - 0.4 - Partly cloudy 10 - - - -
24/04:00am 11.3 CALM 0 0 1015.7 - 0.4 - Partly cloudy 0 - - - -
24/03:52am 11.0 CALM 0 0 1015.7 - 0.4 - Cloudy 0 - - - -
24/03:30am 11.0 CALM 0 0 1015.8 - 0.4 - Partly cloudy 0.1 - - - -
24/03:28am 11.0 CALM 0 0 1015.9 - 0.4 - Partly cloudy 0.1 - - - -
24/03:20am 11.5 CALM 0 0 1016.0 - 0.2 - Partly cloudy 0.1 - - - -
24/03:00am 11.9 CALM 0 0 1016.3 - 0.2 - Mostly clear 0 - - - -
24/02:55am 11.9 CALM 0 0 1016.4 - 0.2 - Partly cloudy 0 - - - -
24/02:49am 12.0 CALM 0 0 1016.4 - 0.2 - Partly cloudy 0 - - - -
24/02:30am 12.1 CALM 0 0 1016.5 - 0.2 - Cloudy 0.1 - - - -
24/02:00am 12.3 CALM 0 0 1016.8 - 0.2 - Partly cloudy 0.2 - - - -
24/01:37am 13.5 WSW 4 6 1017.1 - 0.2 - Partly cloudy 5 - - - -
24/01:36am 13.5 WSW 4 6 1017.1 - 0.2 - Partly cloudy 5 - - - -
24/01:35am 13.5 WSW 4 6 1017.1 - 0.2 - Partly cloudy 7 - - - -
24/01:30am 13.5 WSW 5 6 1017.1 - 0.2 - Partly cloudy 10 - - - -
24/01:00am 13.6 CALM 0 0 1017.3 - 0.2 - Cloudy 0.1 - - - -
24/12:30am 13.7 CALM 0 0 1017.7 - 0.2 - Cloudy 0.2 - - - -
24/12:12am 13.4 CALM 0 0 1017.9 - 0.2 - Partly cloudy 0.3 - - - -
24/12:00am 14.0 CALM 0 0 1018.1 - 0.2 - - 0.5 - - - -
 
Date/Time
EST
Temp
°C
Wind Pressure Rain since
9am
mm
Weather Cloud Vis
km
Sea
Height
m
Swell
Dir  Spd
kts
Gust
kts
hPa Trend Height
m
Period
s
Dir
23/11:30pm 14.5 CALM 0 0 1018.3 - 0.2 - - 2 - - - -
23/11:00pm 14.6 WSW 5 6 1018.7 - 0.2 - - 4 - - - -
23/10:58pm 14.7 WSW 5 6 1018.7 - 0.2 - - 5 - - - -
23/10:47pm 15.3 WSW 5 6 1018.8 - 0.2 - - 10 - - - -
23/10:30pm 14.7 CALM 0 0 1018.5 - 0.2 - - 5 - - - -
23/10:25pm 14.7 W 1 3 1018.5 - 0.2 - - 5 - - - -
23/10:00pm 15.5 SW 5 6 1018.8 - 0.2 - - 10 - - - -
23/09:30pm 15.4 NNE 4 6 1018.8 - 0.2 - - 10 - - - -
23/09:00pm 16.0 CALM 0 0 1019.0 - 0.2 - - 10 - - - -
23/08:30pm 16.0 NE 4 4 1019.2 - 0.2 - - 10 - - - -
23/08:00pm 16.2 NNE 4 5 1019.1 - 0.2 - - 10 - - - -
23/07:30pm 16.2 NE 6 7 1019.2 - 0.2 - - 10 - - - -
23/07:00pm 17.0 NNE 4 6 1019.2 - 0.2 - - 10 - - - -
23/06:30pm 17.5 NNE 5 8 1019.2 - 0.2 - - 10 - - - -
23/06:00pm 16.8 NE 5 6 1019.0 - 0.2 - - 10 - - - -
23/05:30pm 17.4 NE 6 7 1018.9 - 0.2 - - 10 - - - -
23/05:00pm 19.0 ENE 6 8 1018.9 - 0.2 - - 10 - - - -
23/04:30pm 20.0 ENE 7 10 1018.6 - 0.2 - - 10 - - - -
23/04:00pm 20.8 E 7 9 1018.4 - 0.2 - - 10 - - - -
23/03:30pm 21.3 E 8 9 1018.4 - 0.2 - - 10 - - - -
23/03:00pm 21.7 E 8 10 1018.3 - 0.2 - - 10 - - - -
23/02:30pm 21.9 ESE 7 9 1018.3 - 0.2 - - 10 - - - -
23/02:00pm 22.0 ESE 7 9 1018.4 - 0.2 - Partly cloudy 10 - - - -
23/01:30pm 22.1 SE 7 8 1018.5 - 0.2 - Partly cloudy 10 - - - -
23/01:00pm 22.3 SSE 5 8 1018.8 - 0.2 - Partly cloudy 10 - - - -
23/12:30pm 23.0 N 2 4 1019.3 - 0.2 - - 10 - - - -
23/12:00pm 22.0 N 4 7 1019.9 - 0.2 - Mostly clear 10 - - - -
23/11:30am 22.0 NNE 4 7 1020.6 - 0.2 - Partly cloudy 10 - - - -
23/11:00am 20.6 SE 3 4 1021.1 - 0.2 - Partly cloudy 10 - - - -
23/10:30am 19.9 WSW 3 5 1021.7 - 0.0 - Partly cloudy 10 - - - -
23/10:00am 17.9 W 5 6 1022.1 - 0.0 - Partly cloudy 10 - - - -
23/09:30am 16.8 W 6 8 1022.4 - 0.0 - Partly cloudy 10 - - - -
23/09:00am 16.2 WSW 7 9 1022.4 - 1.2 - Partly cloudy 10 - - - -
23/08:30am 15.1 WSW 5 7 1022.4 - 1.2 - Partly cloudy 10 - - - -
23/08:24am 14.7 WSW 6 7 1022.4 - 1.2 - Partly cloudy 10 - - - -
23/08:00am 13.9 NW 3 4 1022.4 - 1.2 - Cloudy 0.3 - - - -
23/07:30am 13.5 W 2 4 1022.1 - 1.2 - Cloudy 0.3 - - - -
23/07:00am 13.1 WNW 4 5 1021.9 - 1.2 - Cloudy 0.1 - - - -
23/06:30am 13.4 W 5 6 1021.7 - 1.2 - Cloudy 0.1 - - - -
23/06:00am 13.1 W 3 6 1021.6 - 1.2 - Cloudy 0.2 - - - -
23/05:30am 13.4 WSW 4 7 1021.2 - 1.2 - Partly cloudy 0.8 - - - -
23/05:20am 13.4 W 4 6 1021.2 - 1.2 - Partly cloudy 5 - - - -
23/05:19am 13.5 WSW 4 6 1021.2 - 1.2 - Partly cloudy 6 - - - -
23/05:14am 13.4 WSW 3 5 1021.2 - 1.2 - Partly cloudy 9 - - - -
23/05:12am 13.4 WSW 3 5 1021.2 - 1.2 - Partly cloudy 9 - - - -
23/05:00am 13.6 W 4 6 1021.2 - 1.2 - Partly cloudy 1 - - - -
23/04:30am 13.7 WNW 4 5 1020.9 - 1.2 - Partly cloudy 0.8 - - - -
23/04:00am 14.1 WSW 4 6 1021.0 - 1.2 - Cloudy 0.2 - - - -
23/03:30am 14.4 W 4 6 1021.1 - 1.2 - Partly cloudy 2 - - - -
23/03:00am 14.0 NNW 4 4 1021.1 - 1.2 - Cloudy 0.1 - - - -
23/02:31am 14.5 SE 4 6 1021.3 - 1.2 - Partly cloudy 0.5 - - - -
23/02:30am 14.4 SE 4 6 1021.3 - 1.2 - Partly cloudy 0.6 - - - -
23/02:08am 14.5 NW 5 6 1021.3 - 1.2 - Partly cloudy 5 - - - -
23/02:00am 15.0 NW 5 6 1021.4 - 1.2 - Partly cloudy 0.8 - - - -
23/01:30am 14.6 SE 2 5 1021.7 - 1.2 - Cloudy 0.1 - - - -
23/01:00am 14.1 NE 1 4 1021.9 - 1.2 - Cloudy 0.1 - - - -
23/12:38am 15.5 SW 1 3 1022.1 - 1.2 - Partly cloudy 0.2 - - - -
23/12:30am 15.4 CALM 0 3 1022.1 - 1.2 - Partly cloudy 0.6 - - - -
23/12:21am 15.5 CALM 0 2 1022.1 - 1.2 - Partly cloudy 5 - - - -
23/12:00am 16.1 WNW 3 4 1022.3 - 1.2 - Cloudy 9 - - - -
 
Date/Time
EST
Temp
°C
Wind Pressure Rain since
9am
mm
Weather Cloud Vis
km
Sea
Height
m
Swell
Dir  Spd
kts
Gust
kts
hPa Trend Height
m
Period
s
Dir
22/11:43pm 16.4 WSW 5 6 1022.4 - 1.2 - Partly cloudy 7 - - - -
22/11:30pm 16.6 WSW 4 6 1022.4 - 1.2 - Partly cloudy 2 - - - -
22/11:10pm 16.3 S 3 4 1022.5 - 1.2 - - 5 - - - -
22/11:00pm 16.7 WSW 5 6 1022.6 - 1.2 - - 10 - - - -
22/10:30pm 16.6 SSE 3 4 1022.6 - 1.2 - Partly cloudy 10 - - - -
22/10:00pm 17.3 WSW 4 5 1022.8 - 1.2 - Partly cloudy 10 - - - -
22/09:30pm 17.4 W 1 3 1022.8 - 1.2 - Partly cloudy 10 - - - -
22/09:00pm 17.4 ENE 2 4 1022.8 - 1.2 - Cloudy 10 - - - -
22/08:30pm 17.5 CALM 0 4 1022.6 - 1.2 - Partly cloudy 10 - - - -
22/08:00pm 17.4 CALM 0 0 1022.4 - 1.2 - Partly cloudy 6 - - - -
22/07:30pm 17.5 CALM 0 0 1022.4 - 1.2 - Partly cloudy 10 - - - -
22/07:00pm 17.4 CALM 0 0 1022.0 - 1.2 - Partly cloudy 10 - - - -
22/06:30pm 17.9 CALM 0 0 1022.0 - 1.2 - Cloudy 10 - - - -
22/06:00pm 18.2 CALM 0 0 1021.8 - 1.2 - Mostly cloudy 10 - - - -
22/05:30pm 18.1 CALM 0 0 1021.6 - 1.2 - Partly cloudy 10 - - - -
22/05:00pm 19.2 CALM 0 0 1021.1 - 1.2 - Partly cloudy 10 - - - -
22/04:30pm 19.6 SE 5 7 1021.0 - 1.2 - - 10 - - - -
22/04:00pm 20.1 ESE 6 8 1020.9 - 1.2 - - 10 - - - -
22/03:30pm 21.0 ESE 7 10 1020.9 - 1.2 - - 10 - - - -
22/03:00pm 21.3 ESE 8 11 1020.8 - 1.2 Recent precip. - 10 - - - -
22/02:30pm 21.4 ESE 8 11 1021.0 - 1.0 - Partly cloudy 10 - - - -
22/02:00pm 21.8 SE 9 12 1020.9 - 1.0 - Partly cloudy 10 - - - -
22/01:30pm 21.2 ESE 8 10 1021.1 - 1.0 - Partly cloudy 10 - - - -
22/01:00pm 20.7 ESE 5 7 1021.3 - 1.0 - Partly cloudy 10 - - - -
22/12:30pm 20.0 SE 6 9 1021.7 - 1.0 - Cloudy 10 - - - -
22/12:00pm 19.0 ESE 6 7 1022.0 - 1.0 Showers Cloudy 10 - - - -
22/11:30am 18.8 SSE 6 9 1022.6 - 0.0 - Partly cloudy 10 - - - -
22/11:00am 21.0 SE 2 5 1023.0 - 0.0 - Partly cloudy 10 - - - -
22/10:30am 20.0 ESE 2 4 1023.3 - 0.0 - Partly cloudy 10 - - - -
22/10:00am 19.6 WNW 3 6 1023.6 - 0.0 - Partly cloudy 10 - - - -
22/09:30am 19.5 W 4 5 1023.7 - 0.0 - Partly cloudy 10 - - - -
22/09:00am 18.3 W 4 4 1023.6 - 0.4 Rain Partly cloudy 10 - - - -
22/08:30am 17.5 WNW 4 5 1023.4 - 0.4 - Partly cloudy 10 - - - -
22/08:00am 17.2 WNW 4 5 1023.1 - 0.4 - Partly cloudy 10 - - - -
22/07:30am 16.8 W 5 6 1022.9 - 0.4 - Partly cloudy 10 - - - -
22/07:00am 16.7 WSW 4 5 1022.6 - 0.2 - Partly cloudy 10 - - - -
22/06:30am 16.5 WSW 5 6 1022.3 - 0.0 - Partly cloudy 10 - - - -
22/06:00am 16.2 CALM 0 0 1021.8 - 0.0 - Cloudy 10 - - - -
22/05:30am 16.3 WSW 2 4 1021.5 - 0.0 - Partly cloudy 10 - - - -
22/05:00am 16.4 WNW 3 4 1021.3 - 0.0 - Cloudy 10 - - - -
22/04:30am 16.2 WSW 3 4 1021.2 - 0.0 - Partly cloudy 10 - - - -
22/04:00am 16.2 CALM 0 0 1020.8 - 0.0 - Partly cloudy 10 - - - -
22/03:30am 16.4 W 5 6 1020.8 - 0.0 - Cloudy 10 - - - -
22/03:00am 16.1 CALM 0 0 1020.7 - 0.0 - Cloudy 10 - - - -
22/02:46am 15.8 CALM 0 0 1020.8 - 0.0 - Partly cloudy 10 - - - -
22/02:30am 15.7 CALM 0 0 1020.8 - 0.0 - Partly cloudy 4 - - - -
22/02:27am 15.6 CALM 0 0 1020.8 - 0.0 - Partly cloudy 5 - - - -
22/02:00am 15.9 CALM 0 3 1021.0 - 0.0 - Cloudy 10 - - - -
22/01:30am 16.0 CALM 0 4 1021.0 - 0.0 - Partly cloudy 10 - - - -
22/01:00am 15.8 S 3 3 1021.2 - 0.0 - Partly cloudy 8 - - - -
22/12:44am 15.4 S 4 4 1021.2 - 0.0 - Partly cloudy 9 - - - -
22/12:30am 15.4 ESE 2 4 1021.2 - 0.0 - Partly cloudy 0.7 - - - -
22/12:00am 15.1 CALM 0 0 1021.4 - 0.0 - Mostly clear 0.5 - - - -

Other Formats:

Comma delimited format used in spreadsheet applications
http://www.bom.gov.au/fwo/IDN60701/IDN60701.95784.axf

JavaScript Object Notation format (JSON) in row-major order
http://www.bom.gov.au/fwo/IDN60701/IDN60701.95784.json